Time;durP1;ratioP1;P1;durP2;ratioP2;P2;SDS_P1;SDS_P2;PMS_P1;PMS_P2;Temp;Humidity;BMP_temperature;BMP_pressure;BME280_temperature;BME280_humidity;BME280_pressure;Samples;Min_cycle;Max_cycle;Signal;HPM_P1;HPM_P2
2024/01/11 00:02:09;;;;;;;42.40;40.00;;;;;;;;;;4993218;28;20416;-42
2024/01/11 00:04:36;;;;;;;40.20;37.85;;;;;;;;;;4992190;28;20252;-42
2024/01/11 00:07:02;;;;;;;35.75;33.55;;;;;;;;;;4992697;28;20549;-42
2024/01/11 00:09:28;;;;;;;36.30;34.10;;;;;;;;;;5000708;28;20198;-42
2024/01/11 00:11:54;;;;;;;40.13;37.60;;;;;;;;;;5007549;28;20915;-42
2024/01/11 00:14:21;;;;;;;39.00;36.70;;;;;;;;;;4991647;28;20966;-42
2024/01/11 00:16:47;;;;;;;47.67;44.47;;;;;;;;;;4973494;28;20799;-43
2024/01/11 00:19:13;;;;;;;49.03;45.83;;;;;;;;;;4990253;28;20207;-42
2024/01/11 00:21:39;;;;;;;45.20;42.50;;;;;;;;;;5004315;28;20796;-42
2024/01/11 00:24:05;;;;;;;50.60;47.10;;;;;;;;;;5003846;28;20197;-42
2024/01/11 00:26:31;;;;;;;50.33;47.03;;;;;;;;;;4996004;28;20466;-42
2024/01/11 00:28:58;;;;;;;48.27;45.03;;;;;;;;;;5012318;28;20200;-42
2024/01/11 00:31:24;;;;;;;50.75;47.35;;;;;;;;;;4992969;28;20463;-43
2024/01/11 00:33:50;;;;;;;46.37;43.00;;;;;;;;;;5007019;28;20196;-44
2024/01/11 00:36:20;;;;;;;41.53;39.10;;;;;;;;;;4999980;28;20451;-42
2024/01/11 00:38:46;;;;;;;44.67;41.88;;;;;;;;;;4984716;28;20241;-41
2024/01/11 00:41:12;;;;;;;45.95;42.92;;;;;;;;;;4976577;28;20199;-42
2024/01/11 00:43:38;;;;;;;51.27;47.47;;;;;;;;;;4991752;28;20665;-43
2024/01/11 00:46:04;;;;;;;50.27;46.50;;;;;;;;;;4979557;28;20901;-43
2024/01/11 00:48:30;;;;;;;51.20;47.40;;;;;;;;;;4991996;28;20786;-43
2024/01/11 00:50:56;;;;;;;52.63;48.70;;;;;;;;;;4981232;28;20188;-43
2024/01/11 00:53:22;;;;;;;52.87;48.87;;;;;;;;;;4979194;28;20467;-42
2024/01/11 00:55:47;;;;;;;49.63;46.10;;;;;;;;;;4989148;28;20425;-42
2024/01/11 00:58:13;;;;;;;52.40;48.53;;;;;;;;;;4972972;28;20412;-42
2024/01/11 01:00:39;;;;;;;52.42;48.33;;;;;;;;;;4991432;28;20491;-42
2024/01/11 01:03:06;;;;;;;48.78;45.42;;;;;;;;;;4976976;28;20200;-43
2024/01/11 01:05:32;;;;;;;53.08;49.33;;;;;;;;;;4983277;28;20235;-43
2024/01/11 01:07:58;;;;;;;47.83;44.50;;;;;;;;;;4985653;28;20189;-42
2024/01/11 01:10:24;;;;;;;49.07;45.63;;;;;;;;;;4975728;28;20449;-42
2024/01/11 01:12:50;;;;;;;50.93;47.00;;;;;;;;;;4991552;28;20411;-43
2024/01/11 01:15:16;;;;;;;52.30;48.30;;;;;;;;;;4973987;28;20443;-42
2024/01/11 01:17:42;;;;;;;52.73;48.77;;;;;;;;;;4986745;28;20479;-42
2024/01/11 01:20:08;;;;;;;52.33;48.27;;;;;;;;;;4982022;28;20479;-42
2024/01/11 01:22:34;;;;;;;57.22;52.78;;;;;;;;;;4978003;28;20776;-43
2024/01/11 01:25:00;;;;;;;35.63;33.40;;;;;;;;;;4989767;28;20246;-42
2024/01/11 01:27:26;;;;;;;48.30;44.97;;;;;;;;;;4972667;28;20713;-43
2024/01/11 01:29:52;;;;;;;52.40;48.40;;;;;;;;;;4990197;28;20413;-43
2024/01/11 01:32:18;;;;;;;49.53;45.77;;;;;;;;;;4980133;28;20918;-42
2024/01/11 01:34:44;;;;;;;53.67;49.70;;;;;;;;;;4985171;28;20432;-43
2024/01/11 01:37:10;;;;;;;50.87;47.07;;;;;;;;;;4990206;28;20186;-42
2024/01/11 01:39:42;;;;;;;52.00;48.17;;;;;;;;;;4975668;28;20452;-43
2024/01/11 01:42:08;;;;;;;51.35;47.65;;;;;;;;;;4995707;28;20400;-43
2024/01/11 01:44:34;;;;;;;52.17;48.43;;;;;;;;;;4977005;28;20612;-41
2024/01/11 01:47:01;;;;;;;48.42;44.92;;;;;;;;;;4976041;28;20438;-43
2024/01/11 01:49:27;;;;;;;48.78;45.17;;;;;;;;;;4985940;28;20544;-43
2024/01/11 01:51:54;;;;;;;49.35;45.65;;;;;;;;;;4989652;28;20518;-43
2024/01/11 01:54:21;;;;;;;47.78;44.42;;;;;;;;;;4977112;28;20216;-43
2024/01/11 01:56:47;;;;;;;51.50;47.10;;;;;;;;;;4995509;28;20704;-42
2024/01/11 01:59:13;;;;;;;51.67;47.88;;;;;;;;;;4977611;28;20201;-42
2024/01/11 02:01:40;;;;;;;51.10;47.35;;;;;;;;;;4988654;28;20661;-42
2024/01/11 02:04:06;;;;;;;50.47;46.80;;;;;;;;;;4984190;28;20297;-43
2024/01/11 02:06:33;;;;;;;51.75;47.80;;;;;;;;;;4981164;28;20605;-43
2024/01/11 02:08:59;;;;;;;52.58;48.67;;;;;;;;;;4992658;28;20192;-43
2024/01/11 02:11:26;;;;;;;54.83;50.33;;;;;;;;;;4975710;28;20216;-42
2024/01/11 02:13:52;;;;;;;54.15;49.80;;;;;;;;;;4988614;28;20201;-42
2024/01/11 02:16:18;;;;;;;52.25;48.22;;;;;;;;;;4994586;28;20779;-42
2024/01/11 02:18:44;;;;;;;54.15;49.97;;;;;;;;;;4987905;28;20542;-42
2024/01/11 02:21:12;;;;;;;53.88;49.65;;;;;;;;;;4994790;28;20185;-42
2024/01/11 02:23:45;;;;;;;50.85;47.05;;;;;;;;;;4995832;28;20288;-42
2024/01/11 02:26:11;;;;;;;53.22;49.28;;;;;;;;;;4976485;28;20445;-42
2024/01/11 02:28:37;;;;;;;50.72;46.92;;;;;;;;;;4993758;28;20332;-41
2024/01/11 02:31:03;;;;;;;52.83;48.90;;;;;;;;;;5008578;28;20277;-42
2024/01/11 02:33:29;;;;;;;53.45;49.38;;;;;;;;;;4994090;28;20444;-42
2024/01/11 02:35:55;;;;;;;57.33;53.03;;;;;;;;;;4994305;28;20181;-42
2024/01/11 02:38:21;;;;;;;52.85;48.90;;;;;;;;;;4994391;28;20942;-42
2024/01/11 02:40:48;;;;;;;53.00;49.00;;;;;;;;;;4994672;28;20202;-42
2024/01/11 02:43:14;;;;;;;52.28;48.22;;;;;;;;;;4993874;28;20530;-42
2024/01/11 02:45:40;;;;;;;54.80;50.60;;;;;;;;;;4979154;28;20208;-42
2024/01/11 02:48:06;;;;;;;56.07;51.60;;;;;;;;;;4994440;28;20408;-42
2024/01/11 02:50:33;;;;;;;54.22;50.13;;;;;;;;;;5006012;28;20828;-42
2024/01/11 02:52:58;;;;;;;52.65;48.65;;;;;;;;;;4995359;28;20604;-43
2024/01/11 02:55:24;;;;;;;52.47;48.77;;;;;;;;;;4983372;28;20181;-42
2024/01/11 02:57:50;;;;;;;50.73;47.07;;;;;;;;;;4994073;28;20424;-42
2024/01/11 03:00:16;;;;;;;50.17;46.57;;;;;;;;;;4975873;28;20464;-43
2024/01/11 03:02:42;;;;;;;59.13;54.67;;;;;;;;;;4996050;28;20447;-42
2024/01/11 03:05:08;;;;;;;50.87;47.40;;;;;;;;;;4993887;28;20821;-43
2024/01/11 03:07:34;;;;;;;50.90;47.17;;;;;;;;;;4990813;28;20492;-42
2024/01/11 03:10:00;;;;;;;51.10;47.20;;;;;;;;;;4985444;28;20416;-42
2024/01/11 03:12:26;;;;;;;61.17;56.07;;;;;;;;;;4982140;28;20547;-42
2024/01/11 03:14:52;;;;;;;53.05;48.72;;;;;;;;;;4994021;28;20850;-42
2024/01/11 03:17:18;;;;;;;53.13;48.55;;;;;;;;;;4994002;28;20177;-42
2024/01/11 03:19:44;;;;;;;54.25;50.13;;;;;;;;;;4993963;28;20263;-42
2024/01/11 03:22:12;;;;;;;54.03;49.67;;;;;;;;;;4993652;28;20256;-42
2024/01/11 03:24:41;;;;;;;57.75;52.75;;;;;;;;;;4992626;28;20447;-43
2024/01/11 03:27:07;;;;;;;57.72;52.63;;;;;;;;;;4993379;28;20612;-43
2024/01/11 03:29:33;;;;;;;57.33;51.90;;;;;;;;;;4993943;28;20264;-43
2024/01/11 03:31:59;;;;;;;57.05;51.65;;;;;;;;;;4993700;28;20256;-42
2024/01/11 03:34:25;;;;;;;55.03;49.60;;;;;;;;;;4992586;28;20279;-42
2024/01/11 03:36:51;;;;;;;55.90;50.83;;;;;;;;;;4993325;28;20185;-43
2024/01/11 03:39:18;;;;;;;37.65;27.52;;;;;;;;;;4992006;28;20415;-43
2024/01/11 03:41:47;;;;;;;22.40;20.25;;;;;;;;;;4993347;28;20521;-42
2024/01/11 03:44:13;;;;;;;42.42;31.38;;;;;;;;;;4991260;28;20267;-42
2024/01/11 03:46:39;;;;;;;29.30;24.85;;;;;;;;;;4993213;28;20631;-42
2024/01/11 03:49:07;;;;;;;25.55;22.58;;;;;;;;;;4992982;28;20264;-43
2024/01/11 03:51:33;;;;;;;33.70;27.08;;;;;;;;;;4981192;28;20243;-42
2024/01/11 03:53:59;;;;;;;36.43;29.97;;;;;;;;;;4981787;28;20204;-42
2024/01/11 03:56:25;;;;;;;27.00;22.20;;;;;;;;;;4993023;28;20416;-43
2024/01/11 03:58:51;;;;;;;21.97;19.73;;;;;;;;;;4991782;28;20446;-43
2024/01/11 04:01:17;;;;;;;18.83;16.83;;;;;;;;;;4993172;28;20393;-43
2024/01/11 04:03:43;;;;;;;32.25;25.42;;;;;;;;;;4973777;28;20438;-43
2024/01/11 04:06:09;;;;;;;21.67;18.95;;;;;;;;;;4987748;28;20526;-42
2024/01/11 04:08:36;;;;;;;36.55;26.10;;;;;;;;;;4982159;28;20228;-42
2024/01/11 04:11:03;;;;;;;20.23;18.08;;;;;;;;;;4980699;28;20177;-43
2024/01/11 04:13:29;;;;;;;43.08;26.88;;;;;;;;;;4992004;28;20204;-43
2024/01/11 04:15:55;;;;;;;26.63;20.75;;;;;;;;;;4993332;28;20408;-43
2024/01/11 04:18:21;;;;;;;84.33;42.10;;;;;;;;;;5012109;28;20176;-42
2024/01/11 04:20:47;;;;;;;35.00;22.50;;;;;;;;;;4995827;28;20415;-42
2024/01/11 04:23:13;;;;;;;57.60;30.63;;;;;;;;;;5001672;28;20427;-42
2024/01/11 04:25:39;;;;;;;69.47;34.15;;;;;;;;;;5004214;28;20431;-43
2024/01/11 04:28:05;;;;;;;25.23;18.50;;;;;;;;;;4995822;28;20680;-43
2024/01/11 04:30:32;;;;;;;89.53;39.08;;;;;;;;;;5011260;28;20176;-43
2024/01/11 04:32:58;;;;;;;88.10;39.63;;;;;;;;;;4989800;28;20178;-43
2024/01/11 04:35:24;;;;;;;91.80;43.30;;;;;;;;;;5005553;28;20180;-43
2024/01/11 04:37:50;;;;;;;89.40;40.30;;;;;;;;;;4989824;28;20428;-42
2024/01/11 04:40:16;;;;;;;89.95;41.40;;;;;;;;;;4989643;28;20457;-42
2024/01/11 04:42:42;;;;;;;98.38;45.17;;;;;;;;;;4987144;28;20180;-42
2024/01/11 04:45:08;;;;;;;89.73;39.60;;;;;;;;;;4998088;28;20185;-42
2024/01/11 04:47:34;;;;;;;89.32;39.20;;;;;;;;;;5007869;28;20499;-42
2024/01/11 04:50:00;;;;;;;63.85;32.05;;;;;;;;;;4973035;28;20232;-42
2024/01/11 04:52:26;;;;;;;58.83;32.80;;;;;;;;;;4987833;28;20185;-43
2024/01/11 04:54:52;;;;;;;104.47;54.37;;;;;;;;;;4991310;28;20439;-42
2024/01/11 04:57:18;;;;;;;51.28;30.15;;;;;;;;;;4991537;28;20420;-42
2024/01/11 04:59:44;;;;;;;72.78;38.05;;;;;;;;;;4991431;28;20212;-42
2024/01/11 05:02:10;;;;;;;20.45;18.55;;;;;;;;;;4991661;28;20208;-41
2024/01/11 05:04:36;;;;;;;20.40;18.55;;;;;;;;;;4989514;28;20232;-42
2024/01/11 05:07:02;;;;;;;34.47;23.03;;;;;;;;;;4973188;28;20170;-43
2024/01/11 05:09:28;;;;;;;55.20;31.20;;;;;;;;;;4976241;28;20417;-42
2024/01/11 05:11:54;;;;;;;55.20;32.22;;;;;;;;;;4989031;28;20211;-42
2024/01/11 05:14:20;;;;;;;37.60;25.73;;;;;;;;;;4994094;28;20201;-42
2024/01/11 05:16:46;;;;;;;35.87;24.77;;;;;;;;;;4988361;28;20190;-42
2024/01/11 05:19:12;;;;;;;39.97;26.02;;;;;;;;;;4978297;28;20463;-42
2024/01/11 05:21:37;;;;;;;71.95;38.60;;;;;;;;;;4995068;28;20244;-42
2024/01/11 05:24:04;;;;;;;52.47;30.87;;;;;;;;;;4993963;28;20743;-42
2024/01/11 05:26:30;;;;;;;86.43;43.93;;;;;;;;;;4953983;28;1198451;-43
2024/01/11 05:28:55;;;;;;;33.60;23.97;;;;;;;;;;4995918;28;20428;-43
2024/01/11 05:31:22;;;;;;;35.83;26.00;;;;;;;;;;4996048;28;20467;-42
2024/01/11 05:33:47;;;;;;;36.03;24.35;;;;;;;;;;4995261;28;20819;-42
2024/01/11 05:36:13;;;;;;;34.37;25.87;;;;;;;;;;4995862;28;20192;-42
2024/01/11 05:38:40;;;;;;;46.00;27.30;;;;;;;;;;4995643;28;20543;-42
2024/01/11 05:41:06;;;;;;;44.40;28.67;;;;;;;;;;4995652;28;20239;-42
2024/01/11 05:43:32;;;;;;;34.35;25.48;;;;;;;;;;4994813;28;20244;-41
2024/01/11 05:45:58;;;;;;;37.65;25.20;;;;;;;;;;4995425;28;20666;-42
2024/01/11 05:48:24;;;;;;;68.50;36.30;;;;;;;;;;4995543;28;20192;-42
2024/01/11 05:50:50;;;;;;;27.55;23.40;;;;;;;;;;4995718;28;20416;-42
2024/01/11 05:53:20;;;;;;;40.55;33.28;;;;;;;;;;4994785;28;20664;-41
2024/01/11 05:55:46;;;;;;;38.20;32.25;;;;;;;;;;4995306;28;20193;-42
2024/01/11 05:58:12;;;;;;;30.97;27.57;;;;;;;;;;4995654;28;20637;-42
2024/01/11 06:00:38;;;;;;;36.37;26.17;;;;;;;;;;4995153;28;20951;-42
2024/01/11 06:03:04;;;;;;;63.80;35.97;;;;;;;;;;4994524;28;20924;-42
2024/01/11 06:05:30;;;;;;;40.30;25.92;;;;;;;;;;4995012;28;20462;-42
2024/01/11 06:07:56;;;;;;;42.75;29.30;;;;;;;;;;4995566;28;20561;-41
2024/01/11 06:10:22;;;;;;;23.43;21.00;;;;;;;;;;4995057;28;20177;-42
2024/01/11 06:12:48;;;;;;;38.55;26.98;;;;;;;;;;4994379;28;20483;-41
2024/01/11 06:15:14;;;;;;;20.15;18.25;;;;;;;;;;4995082;28;20169;-42
2024/01/11 06:17:40;;;;;;;53.20;34.27;;;;;;;;;;4994574;28;20649;-41
2024/01/11 06:20:06;;;;;;;30.40;24.97;;;;;;;;;;4980281;28;20948;-42
2024/01/11 06:22:32;;;;;;;37.40;32.38;;;;;;;;;;4986938;28;20444;-42
2024/01/11 06:24:59;;;;;;;35.97;28.38;;;;;;;;;;4995180;28;20211;-42
2024/01/11 06:27:25;;;;;;;44.00;26.83;;;;;;;;;;4994773;28;20276;-42
2024/01/11 06:29:51;;;;;;;58.45;35.40;;;;;;;;;;4994850;28;20276;-42
2024/01/11 06:32:20;;;;;;;35.10;29.70;;;;;;;;;;4994485;28;20177;-42
2024/01/11 06:34:47;;;;;;;28.23;24.30;;;;;;;;;;4992909;28;20610;-42
2024/01/11 06:37:13;;;;;;;37.30;33.13;;;;;;;;;;5012165;28;20180;-43
2024/01/11 06:39:39;;;;;;;26.10;23.27;;;;;;;;;;5001134;28;20582;-42
2024/01/11 06:42:05;;;;;;;25.33;22.57;;;;;;;;;;5003500;28;20179;-42
2024/01/11 06:44:31;;;;;;;42.45;33.60;;;;;;;;;;4989519;28;20453;-41
2024/01/11 06:46:57;;;;;;;30.87;27.53;;;;;;;;;;4994182;28;20177;-41
2024/01/11 06:49:23;;;;;;;49.72;35.60;;;;;;;;;;4994283;28;20409;-42
2024/01/11 06:51:49;;;;;;;33.40;29.83;;;;;;;;;;4994214;28;20192;-42
2024/01/11 06:54:15;;;;;;;37.03;28.13;;;;;;;;;;4982674;28;20255;-42
2024/01/11 06:56:41;;;;;;;25.02;21.80;;;;;;;;;;4975614;28;20504;-42
2024/01/11 06:59:07;;;;;;;22.38;20.17;;;;;;;;;;4983576;28;20279;-42
2024/01/11 07:01:33;;;;;;;32.92;28.15;;;;;;;;;;5004742;28;20172;-42
2024/01/11 07:03:59;;;;;;;31.08;26.35;;;;;;;;;;4973993;28;20182;-42
2024/01/11 07:06:25;;;;;;;21.98;19.63;;;;;;;;;;4990920;28;20173;-42
2024/01/11 07:08:51;;;;;;;31.00;25.17;;;;;;;;;;4994021;28;20288;-41
2024/01/11 07:11:17;;;;;;;31.80;24.37;;;;;;;;;;5001528;28;20438;-41
2024/01/11 07:13:43;;;;;;;24.80;21.90;;;;;;;;;;5004234;28;20441;-43
2024/01/11 07:16:09;;;;;;;35.42;27.10;;;;;;;;;;4976409;28;20404;-43
2024/01/11 07:18:35;;;;;;;31.50;25.88;;;;;;;;;;5013372;28;20208;-42
2024/01/11 07:21:01;;;;;;;34.70;25.77;;;;;;;;;;4992375;28;20196;-42
2024/01/11 07:23:27;;;;;;;62.10;36.22;;;;;;;;;;4995402;28;20687;-42
2024/01/11 07:25:53;;;;;;;20.75;18.75;;;;;;;;;;4995546;28;20189;-42
2024/01/11 07:28:24;;;;;;;23.42;21.23;;;;;;;;;;4991002;28;20181;-42
2024/01/11 07:30:50;;;;;;;24.02;21.75;;;;;;;;;;4990339;28;20173;-42
2024/01/11 07:33:16;;;;;;;35.47;26.55;;;;;;;;;;4994513;28;20192;-42
2024/01/11 07:35:42;;;;;;;30.83;24.93;;;;;;;;;;4995061;28;20185;-42
2024/01/11 07:38:08;;;;;;;22.60;20.38;;;;;;;;;;4998528;28;20416;-43
2024/01/11 07:40:34;;;;;;;23.70;21.50;;;;;;;;;;4992711;28;20213;-43
2024/01/11 07:43:00;;;;;;;24.00;21.55;;;;;;;;;;4992443;28;20268;-43
2024/01/11 07:45:26;;;;;;;23.07;20.97;;;;;;;;;;4976072;28;20291;-41
2024/01/11 07:47:52;;;;;;;33.80;27.13;;;;;;;;;;4992839;28;20393;-41
2024/01/11 07:50:18;;;;;;;32.97;25.35;;;;;;;;;;4992538;28;20404;-41
2024/01/11 07:52:45;;;;;;;23.83;21.38;;;;;;;;;;4992011;28;20228;-41
2024/01/11 07:55:12;;;;;;;22.65;20.48;;;;;;;;;;4981951;28;20185;-41
2024/01/11 07:57:38;;;;;;;31.77;27.33;;;;;;;;;;4981176;28;20268;-42
2024/01/11 08:00:06;;;;;;;31.45;27.27;;;;;;;;;;4992493;28;20638;-42
2024/01/11 08:02:32;;;;;;;44.55;41.17;;;;;;;;;;4991847;28;20161;-42
2024/01/11 08:04:59;;;;;;;23.83;21.40;;;;;;;;;;4992405;28;20245;-42
2024/01/11 08:07:25;;;;;;;22.88;20.60;;;;;;;;;;4992387;28;20169;-42
2024/01/11 08:09:51;;;;;;;45.40;42.13;;;;;;;;;;4990473;28;20185;-42
2024/01/11 08:12:17;;;;;;;55.17;51.27;;;;;;;;;;4985151;28;20192;-41
2024/01/11 08:14:45;;;;;;;46.67;43.83;;;;;;;;;;4980814;28;20946;-42
2024/01/11 08:17:11;;;;;;;48.70;45.70;;;;;;;;;;4992271;28;20177;-43
2024/01/11 08:19:38;;;;;;;47.60;44.70;;;;;;;;;;4991950;28;20223;-43
2024/01/11 08:22:05;;;;;;;42.78;40.20;;;;;;;;;;4991092;28;20833;-42
2024/01/11 08:24:31;;;;;;;54.13;47.80;;;;;;;;;;4990307;28;20192;-41
2024/01/11 08:26:57;;;;;;;39.03;26.65;;;;;;;;;;4990571;28;20250;-41
2024/01/11 08:29:23;;;;;;;74.07;39.03;;;;;;;;;;4992248;28;20185;-42
2024/01/11 08:31:49;;;;;;;34.67;26.35;;;;;;;;;;4992012;28;20654;-42
2024/01/11 08:34:15;;;;;;;33.30;26.20;;;;;;;;;;4991728;28;20810;-42
2024/01/11 08:36:41;;;;;;;61.63;36.07;;;;;;;;;;4992669;28;20916;-42
2024/01/11 08:39:08;;;;;;;32.25;26.83;;;;;;;;;;4992316;28;20819;-42
2024/01/11 08:41:35;;;;;;;46.85;32.08;;;;;;;;;;4990706;28;20169;-42
2024/01/11 08:44:02;;;;;;;40.35;28.92;;;;;;;;;;5000791;28;20195;-42
2024/01/11 08:46:30;;;;;;;35.03;25.83;;;;;;;;;;4992435;28;20177;-42
2024/01/11 08:48:56;;;;;;;39.35;26.15;;;;;;;;;;4983466;28;20180;-43
2024/01/11 08:51:23;;;;;;;32.25;25.02;;;;;;;;;;4977851;28;20184;-42
2024/01/11 08:53:49;;;;;;;47.92;31.58;;;;;;;;;;4990642;28;20652;-41
2024/01/11 08:56:16;;;;;;;27.13;23.58;;;;;;;;;;4973247;28;20184;-42
2024/01/11 08:58:43;;;;;;;37.53;26.10;;;;;;;;;;4989453;28;20661;-42
2024/01/11 09:01:09;;;;;;;26.15;23.10;;;;;;;;;;4990815;28;20612;-42
2024/01/11 09:03:35;;;;;;;31.65;26.23;;;;;;;;;;4982721;28;20216;-42
2024/01/11 09:06:01;;;;;;;94.35;42.53;;;;;;;;;;4977516;28;20181;-43
2024/01/11 09:08:27;;;;;;;90.93;43.30;;;;;;;;;;4991395;28;20688;-42
2024/01/11 09:10:53;;;;;;;85.95;42.38;;;;;;;;;;4972945;28;20296;-43
2024/01/11 09:13:19;;;;;;;90.20;42.20;;;;;;;;;;4988217;28;20200;-42
2024/01/11 09:15:45;;;;;;;87.10;42.55;;;;;;;;;;4979824;28;20806;-43
2024/01/11 09:18:11;;;;;;;90.50;44.17;;;;;;;;;;4981152;28;20191;-42
2024/01/11 09:20:37;;;;;;;92.60;45.45;;;;;;;;;;4987830;28;20523;-43
2024/01/11 09:23:03;;;;;;;99.60;47.70;;;;;;;;;;4983142;28;20201;-44
2024/01/11 09:25:30;;;;;;;98.45;47.10;;;;;;;;;;4980926;28;20490;-43
2024/01/11 09:27:56;;;;;;;83.80;45.05;;;;;;;;;;4991326;28;20189;-42
2024/01/11 09:30:22;;;;;;;79.80;44.87;;;;;;;;;;4998594;28;20594;-42
2024/01/11 09:32:48;;;;;;;70.57;42.80;;;;;;;;;;4990635;28;20416;-42
2024/01/11 09:35:14;;;;;;;82.80;45.17;;;;;;;;;;4990573;28;20420;-43
2024/01/11 09:37:40;;;;;;;70.57;44.83;;;;;;;;;;4991201;28;20256;-43
2024/01/11 09:40:10;;;;;;;73.72;46.45;;;;;;;;;;4991922;28;20677;-43
2024/01/11 09:42:37;;;;;;;69.00;53.42;;;;;;;;;;4990573;28;20177;-43
2024/01/11 09:45:03;;;;;;;52.28;46.83;;;;;;;;;;4991581;28;20672;-43
2024/01/11 09:47:29;;;;;;;50.42;42.78;;;;;;;;;;4991827;28;20691;-43
2024/01/11 09:49:55;;;;;;;64.20;48.95;;;;;;;;;;4991980;28;20181;-42
2024/01/11 09:52:22;;;;;;;64.55;45.05;;;;;;;;;;4990745;28;20214;-43
2024/01/11 09:54:49;;;;;;;83.78;46.55;;;;;;;;;;4996467;28;20564;-44
2024/01/11 09:57:17;;;;;;;80.93;45.53;;;;;;;;;;5011844;28;20187;-43
2024/01/11 09:59:43;;;;;;;73.10;45.10;;;;;;;;;;5012889;28;20256;-44
2024/01/11 10:02:12;;;;;;;68.20;43.08;;;;;;;;;;4988476;28;20184;-44
2024/01/11 10:04:38;;;;;;;90.30;52.97;;;;;;;;;;4995555;28;20283;-43
2024/01/11 10:07:05;;;;;;;76.50;46.03;;;;;;;;;;5007189;28;20612;-44
2024/01/11 10:09:31;;;;;;;82.63;50.67;;;;;;;;;;4997291;28;20486;-43
2024/01/11 10:11:57;;;;;;;79.07;52.30;;;;;;;;;;5004576;28;20312;-43
2024/01/11 10:14:23;;;;;;;69.93;45.43;;;;;;;;;;5012134;28;20502;-44
2024/01/11 10:16:49;;;;;;;73.70;45.92;;;;;;;;;;5008285;28;20835;-43
2024/01/11 10:19:16;;;;;;;75.93;45.60;;;;;;;;;;5004729;28;20199;-43
2024/01/11 10:21:42;;;;;;;71.82;50.42;;;;;;;;;;4996343;28;20418;-42
2024/01/11 10:24:08;;;;;;;62.33;49.47;;;;;;;;;;4995669;28;20198;-43
2024/01/11 10:26:34;;;;;;;38.50;36.35;;;;;;;;;;5014386;28;20424;-43
2024/01/11 10:29:00;;;;;;;57.60;46.40;;;;;;;;;;4995850;28;20208;-43
2024/01/11 10:31:29;;;;;;;47.90;44.80;;;;;;;;;;5008114;28;20775;-43
2024/01/11 10:33:55;;;;;;;52.22;42.50;;;;;;;;;;5003235;28;20203;-43
2024/01/11 10:36:21;;;;;;;71.82;43.50;;;;;;;;;;5000201;28;20226;-43
2024/01/11 10:38:48;;;;;;;50.97;45.67;;;;;;;;;;4999193;28;20601;-43
2024/01/11 10:41:18;;;;;;;53.10;43.60;;;;;;;;;;4999941;28;20517;-43
2024/01/11 10:43:44;;;;;;;63.08;43.90;;;;;;;;;;4996738;28;20280;-43
2024/01/11 10:46:11;;;;;;;58.65;43.83;;;;;;;;;;4994563;28;20192;-44
2024/01/11 10:48:44;;;;;;;62.45;43.28;;;;;;;;;;4993900;28;20223;-44
2024/01/11 10:51:15;;;;;;;73.43;52.42;;;;;;;;;;4985772;28;20259;-44
2024/01/11 10:53:50;;;;;;;74.57;52.30;;;;;;;;;;4990524;28;20212;-44
2024/01/11 10:56:16;;;;;;;57.30;44.83;;;;;;;;;;4993642;28;20184;-43
2024/01/11 10:58:43;;;;;;;59.22;49.95;;;;;;;;;;4994304;28;20244;-43
2024/01/11 11:01:12;;;;;;;49.60;42.83;;;;;;;;;;4977700;28;20178;-43
2024/01/11 11:03:39;;;;;;;56.15;50.80;;;;;;;;;;4972768;28;20225;-44
2024/01/11 11:06:06;;;;;;;46.72;42.83;;;;;;;;;;4981926;28;20234;-43
2024/01/11 11:08:32;;;;;;;69.20;51.83;;;;;;;;;;4988943;28;20173;-43
2024/01/11 11:10:59;;;;;;;71.40;46.53;;;;;;;;;;4975117;28;20186;-43
2024/01/11 11:13:25;;;;;;;75.60;51.00;;;;;;;;;;4993149;28;20193;-43
2024/01/11 11:15:52;;;;;;;91.18;57.28;;;;;;;;;;4977029;28;20631;-44
2024/01/11 11:18:18;;;;;;;93.68;53.88;;;;;;;;;;4986724;28;20176;-44
2024/01/11 11:20:45;;;;;;;91.38;49.75;;;;;;;;;;4984528;28;20284;-44
2024/01/11 11:23:15;;;;;;;97.78;55.63;;;;;;;;;;4978201;28;20197;-43
2024/01/11 11:25:42;;;;;;;96.47;55.63;;;;;;;;;;4991823;28;20233;-44
2024/01/11 11:28:11;;;;;;;81.25;48.63;;;;;;;;;;4974111;28;20177;-44
2024/01/11 11:30:44;;;;;;;73.72;44.65;;;;;;;;;;4991429;28;20191;-43
2024/01/11 11:33:19;;;;;;;84.05;48.50;;;;;;;;;;4978163;28;20576;-43
2024/01/11 11:35:49;;;;;;;80.90;45.70;;;;;;;;;;4985383;28;20599;-43
2024/01/11 11:38:17;;;;;;;74.80;44.78;;;;;;;;;;4985004;28;20173;-43
2024/01/11 11:40:45;;;;;;;78.63;49.60;;;;;;;;;;4978089;28;20295;-44
2024/01/11 11:43:11;;;;;;;72.65;47.45;;;;;;;;;;4991785;28;20188;-44
2024/01/11 11:45:38;;;;;;;64.72;50.95;;;;;;;;;;4976127;28;20256;-44
2024/01/11 11:48:22;;;;;;;56.78;50.83;;;;;;;;;;4992591;28;20670;-45
2024/01/11 11:51:01;;;;;;;50.13;44.75;;;;;;;;;;4978487;28;20206;-44
2024/01/11 11:53:27;;;;;;;54.90;50.20;;;;;;;;;;4984961;28;20201;-44
2024/01/11 11:55:53;;;;;;;43.28;40.00;;;;;;;;;;4984718;28;20413;-43
2024/01/11 11:58:19;;;;;;;37.30;34.30;;;;;;;;;;4977487;28;20188;-44
2024/01/11 12:00:47;;;;;;;51.60;47.23;;;;;;;;;;4992510;28;20463;-44
2024/01/11 12:03:13;;;;;;;55.67;49.83;;;;;;;;;;4972779;28;20769;-43
2024/01/11 12:05:39;;;;;;;60.75;49.00;;;;;;;;;;4989278;28;20181;-44
2024/01/11 12:08:05;;;;;;;65.40;49.27;;;;;;;;;;4980478;28;20225;-43
2024/01/11 12:10:31;;;;;;;70.75;47.22;;;;;;;;;;4980017;28;20510;-44
2024/01/11 12:12:57;;;;;;;69.83;46.87;;;;;;;;;;4987705;28;20272;-43
2024/01/11 12:15:27;;;;;;;77.40;46.10;;;;;;;;;;4972673;28;20874;-43
2024/01/11 12:17:58;;;;;;;76.15;44.90;;;;;;;;;;4973372;28;20269;-43
2024/01/11 12:20:24;;;;;;;83.15;47.03;;;;;;;;;;4989338;28;20298;-44
2024/01/11 12:22:50;;;;;;;85.47;45.57;;;;;;;;;;4977885;28;20269;-44
2024/01/11 12:25:16;;;;;;;78.37;45.47;;;;;;;;;;4981300;28;20409;-43
2024/01/11 12:27:42;;;;;;;93.63;53.08;;;;;;;;;;4987548;28;20860;-43
2024/01/11 12:30:10;;;;;;;89.05;47.88;;;;;;;;;;4973585;28;20174;-43
2024/01/11 12:32:37;;;;;;;101.95;59.47;;;;;;;;;;4992014;28;20168;-43
2024/01/11 12:35:03;;;;;;;101.22;53.08;;;;;;;;;;4975697;28;20236;-42
2024/01/11 12:37:30;;;;;;;75.88;45.25;;;;;;;;;;4985476;28;20527;-43
2024/01/11 12:39:59;;;;;;;28.75;26.80;;;;;;;;;;4983484;28;20201;-43
2024/01/11 12:42:27;;;;;;;30.67;28.75;;;;;;;;;;4977608;28;20315;-43
2024/01/11 12:44:53;;;;;;;25.98;24.17;;;;;;;;;;4990708;28;20251;-43
2024/01/11 12:47:19;;;;;;;91.67;44.30;;;;;;;;;;4989210;28;20660;-43
2024/01/11 12:49:46;;;;;;;100.07;48.38;;;;;;;;;;4992266;28;20474;-43
2024/01/11 12:52:21;;;;;;;96.32;49.60;;;;;;;;;;4979586;28;20265;-43
2024/01/11 12:54:47;;;;;;;98.80;46.80;;;;;;;;;;4982437;28;20196;-43
2024/01/11 12:57:13;;;;;;;91.83;46.73;;;;;;;;;;4986103;28;20188;-43
2024/01/11 12:59:39;;;;;;;104.78;47.58;;;;;;;;;;4974787;28;20456;-43
2024/01/11 13:02:06;;;;;;;108.20;55.70;;;;;;;;;;4992234;28;20173;-43
2024/01/11 13:04:32;;;;;;;106.38;54.58;;;;;;;;;;4973541;28;20217;-43
2024/01/11 13:06:58;;;;;;;109.50;55.10;;;;;;;;;;4986275;28;20184;-44
2024/01/11 13:09:24;;;;;;;108.00;55.00;;;;;;;;;;4982332;28;20440;-43
2024/01/11 13:11:50;;;;;;;94.13;46.33;;;;;;;;;;4978340;28;20412;-43
2024/01/11 13:14:19;;;;;;;92.25;46.25;;;;;;;;;;4989646;28;20422;-43
2024/01/11 13:16:45;;;;;;;107.68;56.13;;;;;;;;;;4972863;28;20216;-42
2024/01/11 13:19:11;;;;;;;114.47;56.70;;;;;;;;;;4990087;28;20252;-42
2024/01/11 13:21:38;;;;;;;110.20;54.38;;;;;;;;;;4978203;28;20585;-42
2024/01/11 13:24:05;;;;;;;99.35;48.95;;;;;;;;;;4981573;28;20197;-43
2024/01/11 13:26:31;;;;;;;95.25;47.20;;;;;;;;;;4985618;28;20193;-43
2024/01/11 13:28:57;;;;;;;90.30;46.13;;;;;;;;;;4982761;28;20177;-43
2024/01/11 13:31:23;;;;;;;97.27;49.33;;;;;;;;;;4994708;28;20449;-43
2024/01/11 13:33:49;;;;;;;95.90;45.47;;;;;;;;;;4993959;28;20445;-43
2024/01/11 13:36:15;;;;;;;114.05;52.00;;;;;;;;;;4991671;28;20188;-42
2024/01/11 13:38:41;;;;;;;109.23;48.77;;;;;;;;;;4995133;28;20517;-43
2024/01/11 13:41:10;;;;;;;112.27;50.57;;;;;;;;;;4993648;28;20451;-43
2024/01/11 13:43:36;;;;;;;116.20;53.28;;;;;;;;;;4993791;28;20945;-43
2024/01/11 13:46:04;;;;;;;116.70;48.63;;;;;;;;;;4995337;28;20186;-43
2024/01/11 13:48:31;;;;;;;117.18;52.03;;;;;;;;;;4994722;28;20416;-43
2024/01/11 13:50:57;;;;;;;115.03;50.45;;;;;;;;;;4994730;28;20175;-44
2024/01/11 13:53:23;;;;;;;116.00;49.65;;;;;;;;;;4993673;28;20203;-43
2024/01/11 13:55:49;;;;;;;137.37;57.60;;;;;;;;;;4994715;28;20187;-43
2024/01/11 13:58:16;;;;;;;117.97;50.03;;;;;;;;;;4993520;28;20469;-44
2024/01/11 14:00:43;;;;;;;114.60;51.00;;;;;;;;;;4975898;28;20495;-44
2024/01/11 14:03:10;;;;;;;117.22;57.60;;;;;;;;;;4991717;28;20696;-45
2024/01/11 14:05:37;;;;;;;106.15;48.58;;;;;;;;;;4994589;28;20530;-43
2024/01/11 14:08:05;;;;;;;107.68;52.28;;;;;;;;;;4994594;28;20208;-43
2024/01/11 14:10:32;;;;;;;91.78;53.50;;;;;;;;;;4994562;28;20640;-43
2024/01/11 14:12:58;;;;;;;63.78;42.50;;;;;;;;;;4992293;28;20194;-44